GEX weather

Geelong Airport
Victoria, Australia

Public forecast

Using degrees Celsius for public forecast. Weather courtesy of forecast.io.

Closest aviation weather report (METAR) to Geelong Airport

Closest report is Avalon Airport, 12.9 nm (23.8 km) NNE. Retrieved 2020/06/06 23:02 UTC (36 minutes ago):

YMAV 062302Z AUTO 23004KT 9999 // BKN018 BKN022 BKN027 08/08 Q1027

Closest aviation forecast (TAF) to Geelong Airport

Closest forecast is Avalon Airport, 12.9 nm (23.8 km) NNE. Retrieved 2020/06/06 18:00 UTC (6 hours ago):

TAF YMAV 061701Z 0618/0718 18006KT 9999 -SHRA SCT025 SCT045 FM070700 17006KT 9999 NSW SCT035 BECMG 0712/0714 29005KT 9999 FEW030 INTER 0618/0700 5000 SHRA BKN012